Time;durP1;ratioP1;P1;durP2;ratioP2;P2;SDS_P1;SDS_P2;PMS_P1;PMS_P2;Temp;Humidity;BMP_temperature;BMP_pressure;BME280_temperature;BME280_humidity;BME280_pressure;Samples;Min_cycle;Max_cycle;Signal;HPM_P1;HPM_P2
2022/04/06 00:02:13;;;;;;;2.28;1.20;;;9.70;96.70;;;;;;5069205;28;20047;-78
2022/04/06 00:04:41;;;;;;;2.08;1.30;;;9.60;96.70;;;;;;5069756;28;20500;-78
2022/04/06 00:07:10;;;;;;;2.53;1.35;;;9.60;96.70;;;;;;5080862;28;20051;-78
2022/04/06 00:09:39;;;;;;;3.08;1.52;;;9.70;96.70;;;;;;5084640;28;20043;-78
2022/04/06 00:12:08;;;;;;;4.18;1.80;;;9.70;96.70;;;;;;5069619;28;20056;-78
2022/04/06 00:14:38;;;;;;;2.25;1.70;;;9.60;96.70;;;;;;5105374;28;20118;-78
2022/04/06 00:17:07;;;;;;;3.30;1.88;;;9.60;96.70;;;;;;5086368;28;20039;-78
2022/04/06 00:19:36;;;;;;;2.88;2.00;;;9.70;96.70;;;;;;5086850;28;20075;-78
2022/04/06 00:22:05;;;;;;;4.30;2.15;;;9.70;96.70;;;;;;5068107;28;20040;-77
2022/04/06 00:24:34;;;;;;;3.33;2.03;;;9.60;96.70;;;;;;5087282;28;20592;-78
2022/04/06 00:27:02;;;;;;;4.13;2.80;;;9.60;96.70;;;;;;5102848;28;20035;-78
2022/04/06 00:29:30;;;;;;;3.85;2.40;;;9.60;96.70;;;;;;5085796;28;20047;-78
2022/04/06 00:32:00;;;;;;;4.18;2.50;;;9.50;96.70;;;;;;5104375;28;20535;-77
2022/04/06 00:37:15;;;;;;;3.10;2.13;;;9.50;96.70;;;;;;5104405;28;20040;-78
2022/04/06 00:39:44;;;;;;;3.90;2.13;;;9.40;96.70;;;;;;5069456;28;20043;-78
2022/04/06 00:42:12;;;;;;;3.35;2.33;;;9.50;96.70;;;;;;5084615;28;20569;-78
2022/04/06 00:44:40;;;;;;;3.75;2.33;;;9.50;96.70;;;;;;5105622;28;20039;-78
2022/04/06 00:47:10;;;;;;;5.35;2.20;;;9.50;96.70;;;;;;5086144;28;20047;-78
2022/04/06 00:49:39;;;;;;;5.32;2.67;;;9.40;96.70;;;;;;5109843;27;20045;-78
2022/04/06 00:52:08;;;;;;;4.75;2.47;;;9.40;96.70;;;;;;5085980;28;20043;-79
2022/04/06 00:54:38;;;;;;;4.22;2.30;;;9.30;96.70;;;;;;5084867;28;20127;-78
2022/04/06 00:57:07;;;;;;;4.05;2.78;;;9.40;96.70;;;;;;5098390;28;20047;-78
2022/04/06 00:59:36;;;;;;;3.75;2.17;;;9.30;96.70;;;;;;5080052;28;20039;-80
2022/04/06 01:02:05;;;;;;;3.00;2.17;;;9.20;96.70;;;;;;5084096;28;20046;-78
2022/04/06 01:04:35;;;;;;;5.82;2.25;;;9.20;96.70;;;;;;5089450;28;20396;-78
2022/04/06 01:07:04;;;;;;;2.47;1.92;;;9.10;96.70;;;;;;5073337;28;20464;-78
2022/04/06 01:09:32;;;;;;;5.00;2.20;;;9.10;96.70;;;;;;5103815;28;20090;-78
2022/04/06 01:12:02;;;;;;;3.67;2.13;;;9.10;96.70;;;;;;5077903;28;20124;-78
2022/04/06 01:14:31;;;;;;;3.65;2.17;;;9.10;96.70;;;;;;5063697;28;20516;-78
2022/04/06 01:17:00;;;;;;;4.43;2.60;;;9.00;96.70;;;;;;5086190;28;20036;-78
2022/04/06 01:19:34;;;;;;;3.00;1.85;;;9.00;96.70;;;;;;5086526;28;20051;-77
2022/04/06 01:22:08;;;;;;;4.53;2.47;;;8.90;96.70;;;;;;5075371;28;20058;-78
2022/04/06 01:24:37;;;;;;;3.13;2.42;;;9.00;96.70;;;;;;5082872;28;20055;-78
2022/04/06 01:27:06;;;;;;;3.05;2.38;;;9.00;96.70;;;;;;5085504;28;20520;-78
2022/04/06 01:29:34;;;;;;;4.93;2.47;;;8.90;96.70;;;;;;5085133;28;20043;-78
2022/04/06 01:32:11;;;;;;;3.17;1.85;;;9.00;96.70;;;;;;5078900;27;20044;-81
2022/04/06 01:34:40;;;;;;;4.18;1.83;;;8.90;96.70;;;;;;5087206;28;20043;-82
2022/04/06 01:37:12;;;;;;;4.22;1.90;;;8.90;96.70;;;;;;5072502;28;20092;-81
2022/04/06 01:39:42;;;;;;;2.95;1.65;;;8.90;96.70;;;;;;5108119;28;20047;-81
2022/04/06 01:42:12;;;;;;;2.05;1.30;;;8.90;96.70;;;;;;5107753;28;20065;-81
2022/04/06 01:44:41;;;;;;;4.22;1.92;;;8.90;96.70;;;;;;5107594;28;20134;-82
2022/04/06 01:47:10;;;;;;;2.08;1.35;;;8.90;96.70;;;;;;5089561;28;20078;-81
2022/04/06 01:52:29;;;;;;;3.17;1.30;;;8.70;96.70;;;;;;5081149;28;20043;-75
2022/04/06 01:55:00;;;;;;;5.53;1.63;;;8.70;96.70;;;;;;5073920;28;20051;-78
2022/04/06 01:57:30;;;;;;;4.63;2.15;;;8.60;96.70;;;;;;5067328;28;20051;-77
2022/04/06 01:59:59;;;;;;;3.15;1.40;;;8.70;96.70;;;;;;5085355;28;20051;-80
2022/04/06 02:02:33;;;;;;;1.42;1.05;;;8.60;96.70;;;;;;5087603;28;20130;-80
2022/04/06 02:05:02;;;;;;;2.80;1.52;;;8.60;96.70;;;;;;5072877;28;20205;-80
2022/04/06 02:07:32;;;;;;;3.35;1.67;;;8.70;96.70;;;;;;5106673;28;20044;-80
2022/04/06 02:10:00;;;;;;;2.88;1.50;;;8.60;96.70;;;;;;5105998;28;20039;-80
2022/04/06 02:12:29;;;;;;;2.67;1.30;;;8.70;96.70;;;;;;5088840;28;20040;-80
2022/04/06 02:14:58;;;;;;;1.95;1.38;;;8.60;96.70;;;;;;5072732;28;20047;-80
2022/04/06 02:17:28;;;;;;;2.40;1.08;;;8.60;96.70;;;;;;5088972;28;20035;-80
2022/04/06 02:19:57;;;;;;;3.20;1.55;;;8.60;96.70;;;;;;5107101;28;20560;-80
2022/04/06 02:22:25;;;;;;;3.80;1.27;;;8.50;96.70;;;;;;5106524;28;20036;-80
2022/04/06 02:24:55;;;;;;;3.35;1.30;;;8.50;96.70;;;;;;5106961;28;20048;-80
2022/04/06 02:27:23;;;;;;;2.75;1.55;;;8.50;96.70;;;;;;5089112;28;20075;-80
2022/04/06 02:29:52;;;;;;;3.72;1.73;;;8.50;96.70;;;;;;5089010;28;20151;-81
2022/04/06 02:32:21;;;;;;;2.17;1.30;;;8.50;96.70;;;;;;5107592;28;20043;-80
2022/04/06 02:34:53;;;;;;;1.88;1.15;;;8.50;96.70;;;;;;5088691;28;20121;-80
2022/04/06 02:37:21;;;;;;;2.28;1.45;;;8.40;96.70;;;;;;5106648;28;20123;-80
2022/04/06 02:39:49;;;;;;;2.15;1.30;;;8.20;96.70;;;;;;5088332;28;20036;-80
2022/04/06 02:42:19;;;;;;;2.63;1.67;;;8.30;96.70;;;;;;5080576;28;20043;-80
2022/04/06 02:44:47;;;;;;;1.85;1.10;;;8.30;96.70;;;;;;5084739;28;20067;-80
2022/04/06 02:47:16;;;;;;;2.08;1.10;;;8.30;96.70;;;;;;5096645;28;20078;-81
2022/04/06 02:49:44;;;;;;;2.70;1.38;;;8.20;96.70;;;;;;5088088;28;20035;-80
2022/04/06 02:52:12;;;;;;;2.47;1.05;;;8.20;96.70;;;;;;5104040;28;20039;-80
2022/04/06 02:54:40;;;;;;;2.13;1.35;;;8.20;96.70;;;;;;5106820;28;20114;-80
2022/04/06 02:57:09;;;;;;;2.50;1.52;;;8.20;96.70;;;;;;5072162;28;20052;-81
2022/04/06 02:59:40;;;;;;;2.90;1.38;;;8.10;96.70;;;;;;5099468;28;20043;-81
2022/04/06 03:02:08;;;;;;;3.40;1.92;;;8.00;96.70;;;;;;5105389;28;20108;-81
2022/04/06 03:04:36;;;;;;;3.15;1.40;;;8.00;96.70;;;;;;5106528;28;20520;-79
2022/04/06 03:07:05;;;;;;;2.78;1.58;;;7.90;96.70;;;;;;5088281;28;20487;-79
2022/04/06 03:09:33;;;;;;;2.80;1.77;;;7.90;96.70;;;;;;5106675;28;20071;-80
2022/04/06 03:12:01;;;;;;;2.42;1.40;;;7.90;96.70;;;;;;5088209;28;20054;-80
2022/04/06 03:14:29;;;;;;;2.88;1.70;;;7.90;96.70;;;;;;5088656;28;20048;-80
2022/04/06 03:16:59;;;;;;;1.92;1.40;;;7.90;96.70;;;;;;5086888;28;21083;-80
2022/04/06 03:19:27;;;;;;;3.45;2.05;;;7.90;96.70;;;;;;5100428;28;20043;-80
2022/04/06 03:21:55;;;;;;;4.40;2.13;;;7.90;96.70;;;;;;5092052;28;20052;-81
2022/04/06 03:24:23;;;;;;;3.13;1.88;;;7.90;96.70;;;;;;5091910;28;20145;-81
2022/04/06 03:26:51;;;;;;;2.60;1.85;;;8.00;96.70;;;;;;5110288;28;20036;-80
2022/04/06 03:29:19;;;;;;;2.88;1.90;;;8.10;96.70;;;;;;5087305;28;20043;-80
2022/04/06 03:31:48;;;;;;;4.57;1.90;;;8.00;96.70;;;;;;5110232;28;20069;-80
2022/04/06 03:34:17;;;;;;;4.22;1.77;;;8.00;96.70;;;;;;5091453;28;20039;-81
2022/04/06 03:36:46;;;;;;;3.15;1.73;;;7.90;96.70;;;;;;5091948;28;20752;-80
2022/04/06 03:39:14;;;;;;;2.72;1.60;;;7.80;96.70;;;;;;5091718;28;20524;-79
2022/04/06 03:41:42;;;;;;;3.15;1.98;;;7.70;96.70;;;;;;5091740;28;20055;-80
2022/04/06 03:44:10;;;;;;;3.13;1.60;;;7.70;96.70;;;;;;5109343;28;20446;-80
2022/04/06 03:46:38;;;;;;;3.17;1.85;;;7.60;96.70;;;;;;5092926;28;20089;-81
2022/04/06 03:49:07;;;;;;;3.22;1.88;;;7.70;96.70;;;;;;5108328;28;20056;-80
2022/04/06 03:51:37;;;;;;;3.10;1.80;;;7.70;96.70;;;;;;5091716;28;20077;-80
2022/04/06 03:54:05;;;;;;;2.58;1.75;;;7.70;96.70;;;;;;5091704;28;20072;-80
2022/04/06 03:56:33;;;;;;;3.38;2.25;;;7.60;96.70;;;;;;5091362;28;20036;-79
2022/04/06 03:59:04;;;;;;;3.17;2.25;;;7.70;96.70;;;;;;5087639;28;20040;-79
2022/04/06 04:01:35;;;;;;;4.32;1.98;;;7.70;96.70;;;;;;5105638;28;20481;-80
2022/04/06 04:04:04;;;;;;;3.05;1.85;;;7.60;96.70;;;;;;5089806;28;20066;-80
2022/04/06 04:06:32;;;;;;;3.42;1.67;;;7.40;96.70;;;;;;5088742;28;20048;-81
2022/04/06 04:09:02;;;;;;;2.20;1.90;;;7.40;96.70;;;;;;5091154;28;20142;-81
2022/04/06 04:11:31;;;;;;;4.78;2.20;;;7.40;96.70;;;;;;5105528;28;20040;-77
2022/04/06 04:13:59;;;;;;;3.47;1.80;;;7.40;96.70;;;;;;5068563;28;20401;-76
2022/04/06 04:16:27;;;;;;;4.40;2.17;;;7.30;96.70;;;;;;5064244;28;20436;-77
2022/04/06 04:18:56;;;;;;;1.85;1.50;;;7.40;96.70;;;;;;5086510;28;20035;-77
2022/04/06 04:21:33;;;;;;;3.45;1.85;;;7.40;96.70;;;;;;5075051;28;20489;-76
2022/04/06 04:24:05;;;;;;;6.80;1.85;;;7.40;96.70;;;;;;5070253;28;20492;-76
2022/04/06 04:26:37;;;;;;;5.30;2.00;;;7.30;96.70;;;;;;5085827;28;20055;-77
2022/04/06 04:29:06;;;;;;;2.78;1.40;;;7.20;96.70;;;;;;5083371;28;20047;-76
2022/04/06 04:31:34;;;;;;;3.60;1.80;;;7.20;96.70;;;;;;5074572;28;20138;-81
2022/04/06 04:34:03;;;;;;;4.05;1.63;;;7.30;96.70;;;;;;5086987;28;20046;-76
2022/04/06 04:36:31;;;;;;;4.05;1.98;;;7.40;96.70;;;;;;5100336;28;20143;-77
2022/04/06 04:39:00;;;;;;;3.00;2.10;;;7.20;96.70;;;;;;5101990;28;20161;-77
2022/04/06 04:41:30;;;;;;;5.13;2.00;;;7.20;96.70;;;;;;5103482;28;20848;-77
2022/04/06 04:43:59;;;;;;;4.78;2.63;;;7.20;96.70;;;;;;5085930;28;20055;-77
2022/04/06 04:46:27;;;;;;;2.90;1.95;;;7.10;96.70;;;;;;5081568;28;20154;-77
2022/04/06 04:48:55;;;;;;;3.33;2.03;;;7.00;96.70;;;;;;5104911;28;20490;-77
2022/04/06 04:51:23;;;;;;;3.33;1.77;;;6.90;96.70;;;;;;5085439;28;20069;-76
2022/04/06 04:53:51;;;;;;;2.10;1.80;;;6.80;96.70;;;;;;5086434;28;20054;-77
2022/04/06 04:56:20;;;;;;;5.70;2.28;;;6.80;96.70;;;;;;5084709;28;20040;-77
2022/04/06 04:58:49;;;;;;;2.88;2.20;;;6.90;96.70;;;;;;5084687;28;20047;-77
2022/04/06 05:01:18;;;;;;;6.28;2.78;;;7.00;96.70;;;;;;5079710;28;20055;-77
2022/04/06 05:03:47;;;;;;;4.18;2.55;;;7.00;96.70;;;;;;5085191;28;20036;-76
2022/04/06 05:06:15;;;;;;;5.13;2.92;;;7.00;96.70;;;;;;5085619;28;20059;-77
2022/04/06 05:08:43;;;;;;;3.63;2.53;;;6.90;96.70;;;;;;5068183;28;20078;-76
2022/04/06 05:11:11;;;;;;;6.13;3.20;;;6.80;96.70;;;;;;5102983;28;20493;-77
2022/04/06 05:13:39;;;;;;;6.07;3.13;;;6.80;96.70;;;;;;5105264;27;20051;-77
2022/04/06 05:16:09;;;;;;;5.95;3.95;;;6.70;96.70;;;;;;5104232;28;20040;-77
2022/04/06 05:18:37;;;;;;;6.88;4.07;;;6.70;96.70;;;;;;5085060;28;20036;-76
2022/04/06 05:21:09;;;;;;;8.65;4.25;;;6.90;96.70;;;;;;5085767;28;20051;-76
2022/04/06 05:23:37;;;;;;;8.27;4.20;;;7.00;96.70;;;;;;5103393;28;20595;-77
2022/04/06 05:26:06;;;;;;;6.95;4.60;;;7.10;96.70;;;;;;5103641;28;20130;-77
2022/04/06 05:28:34;;;;;;;7.38;4.70;;;7.00;96.70;;;;;;5078103;28;20043;-77
2022/04/06 05:31:02;;;;;;;6.82;4.15;;;7.10;96.70;;;;;;5081210;28;20057;-77
2022/04/06 05:33:32;;;;;;;4.40;3.30;;;7.10;96.70;;;;;;5063828;28;20067;-77
2022/04/06 05:36:00;;;;;;;10.18;4.30;;;7.00;96.70;;;;;;5082588;28;20039;-78
2022/04/06 05:38:29;;;;;;;11.32;4.10;;;7.10;96.70;;;;;;5098994;28;20059;-82
2022/04/06 05:40:58;;;;;;;5.55;3.35;;;7.10;96.70;;;;;;5108075;28;20498;-83
2022/04/06 05:43:28;;;;;;;4.82;3.22;;;7.30;96.70;;;;;;5108567;28;20102;-83
2022/04/06 05:45:56;;;;;;;5.78;3.30;;;7.40;96.70;;;;;;5089971;28;20043;-83
2022/04/06 05:48:25;;;;;;;3.67;2.55;;;7.40;96.70;;;;;;5087499;28;20051;-83
2022/04/06 05:50:55;;;;;;;5.90;2.90;;;7.40;96.70;;;;;;5088256;28;20047;-84
2022/04/06 05:53:23;;;;;;;9.82;2.67;;;7.50;96.70;;;;;;5089505;28;20050;-83
2022/04/06 05:55:51;;;;;;;3.30;2.50;;;7.50;96.70;;;;;;5089729;28;20067;-83
2022/04/06 05:58:20;;;;;;;4.20;2.40;;;7.60;96.70;;;;;;5108107;28;20039;-84
2022/04/06 06:00:48;;;;;;;4.95;2.35;;;7.60;96.70;;;;;;5073585;28;20040;-82
2022/04/06 06:03:16;;;;;;;4.55;2.40;;;7.70;96.70;;;;;;5089873;28;20066;-83
2022/04/06 06:05:44;;;;;;;5.13;2.88;;;7.70;96.70;;;;;;5090245;28;20051;-80
2022/04/06 06:08:20;;;;;;;4.07;2.70;;;7.60;96.70;;;;;;5079516;28;20321;-85
2022/04/06 06:10:48;;;;;;;4.18;2.70;;;7.60;96.70;;;;;;5089734;28;20051;-85
2022/04/06 06:13:16;;;;;;;3.88;2.20;;;7.60;96.70;;;;;;5105718;28;20071;-84
2022/04/06 06:15:45;;;;;;;4.47;2.42;;;7.70;96.70;;;;;;5073238;28;20676;-85
2022/04/06 06:18:13;;;;;;;5.55;2.50;;;7.80;96.70;;;;;;5089610;28;20424;-85
2022/04/06 06:20:41;;;;;;;3.70;2.53;;;7.80;96.70;;;;;;5107714;28;20043;-82
2022/04/06 06:23:10;;;;;;;4.10;2.50;;;7.70;96.70;;;;;;5106873;28;20650;-80
2022/04/06 06:25:39;;;;;;;6.80;2.53;;;7.90;96.70;;;;;;5106032;28;20089;-81
2022/04/06 06:28:09;;;;;;;3.38;2.35;;;7.90;96.70;;;;;;5089985;28;20043;-80
2022/04/06 06:30:37;;;;;;;3.17;2.25;;;8.00;96.70;;;;;;5090223;28;20576;-82
2022/04/06 06:33:05;;;;;;;3.63;1.98;;;8.10;96.70;;;;;;5069051;28;20048;-83
2022/04/06 06:35:39;;;;;;;3.85;2.45;;;8.10;96.70;;;;;;5087810;28;20036;-81
2022/04/06 06:38:07;;;;;;;4.18;2.45;;;8.20;96.70;;;;;;5106549;28;20259;-83
2022/04/06 06:40:40;;;;;;;4.20;2.70;;;8.40;96.70;;;;;;5107480;28;20606;-82
2022/04/06 06:43:08;;;;;;;3.33;2.60;;;8.50;96.70;;;;;;5089598;28;20127;-82
2022/04/06 06:45:37;;;;;;;4.85;2.83;;;8.50;96.70;;;;;;5107587;28;20058;-82
2022/04/06 06:48:05;;;;;;;4.43;2.58;;;8.50;96.70;;;;;;5089962;28;20044;-83
2022/04/06 06:50:34;;;;;;;4.72;2.88;;;8.70;96.70;;;;;;5073332;28;20378;-81
2022/04/06 06:53:02;;;;;;;3.78;2.42;;;8.70;96.70;;;;;;5092831;28;20121;-82
2022/04/06 06:55:30;;;;;;;5.95;2.90;;;8.60;96.70;;;;;;5111104;28;20096;-82
2022/04/06 06:57:59;;;;;;;4.20;2.90;;;8.70;96.70;;;;;;5093301;28;20044;-82
2022/04/06 07:00:27;;;;;;;3.92;2.85;;;8.70;96.70;;;;;;5076725;28;20093;-82
2022/04/06 07:02:56;;;;;;;3.50;2.40;;;8.80;96.70;;;;;;5109919;28;20043;-83
2022/04/06 07:05:24;;;;;;;7.85;2.90;;;8.80;96.70;;;;;;5092492;28;20052;-82
2022/04/06 07:07:54;;;;;;;3.70;2.80;;;9.00;96.70;;;;;;5074252;28;20143;-82
2022/04/06 07:10:23;;;;;;;4.82;2.72;;;9.10;96.70;;;;;;5093003;28;20151;-82
2022/04/06 07:12:52;;;;;;;5.82;2.83;;;9.20;96.70;;;;;;5092795;28;20074;-84
2022/04/06 07:15:22;;;;;;;4.78;2.25;;;9.20;96.70;;;;;;5085979;28;20043;-81
2022/04/06 07:17:51;;;;;;;5.00;2.45;;;9.20;96.70;;;;;;5093652;28;20044;-82
2022/04/06 07:20:19;;;;;;;5.30;2.60;;;9.30;96.70;;;;;;5075640;28;20039;-82
2022/04/06 07:22:47;;;;;;;3.03;2.25;;;9.40;96.70;;;;;;5075906;28;20489;-82
2022/04/06 07:25:15;;;;;;;5.28;2.38;;;9.60;96.70;;;;;;5110066;28;20119;-82
2022/04/06 07:27:44;;;;;;;4.53;2.50;;;9.70;96.70;;;;;;5091253;28;20120;-83
2022/04/06 07:30:13;;;;;;;4.10;2.13;;;9.80;96.70;;;;;;5088390;28;20039;-82
2022/04/06 07:32:43;;;;;;;5.75;2.50;;;9.90;96.70;;;;;;5092590;28;20043;-82
2022/04/06 07:35:11;;;;;;;4.88;2.80;;;10.00;96.70;;;;;;5110787;28;20287;-81
2022/04/06 07:37:41;;;;;;;3.65;2.45;;;10.00;96.70;;;;;;5091731;28;20039;-82
2022/04/06 07:40:10;;;;;;;3.78;2.58;;;10.10;96.70;;;;;;5087397;28;20047;-82
2022/04/06 07:42:39;;;;;;;6.88;3.30;;;10.10;96.70;;;;;;5090579;28;20493;-82
2022/04/06 07:45:09;;;;;;;3.80;2.70;;;10.10;96.70;;;;;;5092990;28;20046;-83
2022/04/06 07:47:40;;;;;;;5.35;3.50;;;10.10;96.70;;;;;;5065848;28;20032;-82
2022/04/06 07:50:12;;;;;;;3.88;3.25;;;10.20;96.70;;;;;;5090669;28;20071;-82
2022/04/06 07:52:41;;;;;;;6.70;4.07;;;10.30;96.70;;;;;;5092332;28;20161;-82
2022/04/06 07:55:10;;;;;;;7.20;4.15;;;10.50;96.70;;;;;;5075931;28;20058;-81
2022/04/06 07:57:39;;;;;;;5.38;3.95;;;10.60;96.70;;;;;;5088130;28;20118;-81
2022/04/06 08:00:09;;;;;;;9.32;4.07;;;10.70;96.70;;;;;;5092363;28;20135;-82
2022/04/06 08:02:37;;;;;;;6.13;4.45;;;10.90;96.70;;;;;;5090068;28;20488;-82
2022/04/06 08:05:06;;;;;;;5.72;4.55;;;11.10;96.70;;;;;;5073142;28;20067;-82
2022/04/06 08:07:39;;;;;;;6.47;4.60;;;11.10;96.70;;;;;;5092064;28;20052;-83
2022/04/06 08:10:09;;;;;;;6.78;4.47;;;11.30;96.70;;;;;;5092115;28;20049;-83
2022/04/06 08:12:37;;;;;;;5.90;4.72;;;11.50;96.70;;;;;;5109652;28;20050;-82
2022/04/06 08:15:07;;;;;;;6.05;4.60;;;11.60;96.70;;;;;;5092211;28;20408;-82
2022/04/06 08:17:37;;;;;;;6.60;5.00;;;11.60;96.70;;;;;;5092139;28;20044;-83
2022/04/06 08:20:08;;;;;;;6.85;4.85;;;11.70;96.70;;;;;;5091458;28;20061;-82
2022/04/06 08:22:38;;;;;;;9.55;4.88;;;11.70;96.70;;;;;;5109603;28;20481;-82
2022/04/06 08:25:08;;;;;;;7.22;5.05;;;11.90;96.70;;;;;;5074975;28;20043;-83
2022/04/06 08:27:56;;;;;;;6.82;4.97;;;12.00;96.70;;;;;;5082438;28;20048;-83
2022/04/06 08:30:25;;;;;;;6.30;4.68;;;12.10;96.70;;;;;;5108504;28;20043;-82
2022/04/06 08:32:58;;;;;;;6.82;4.95;;;12.20;96.70;;;;;;5073032;28;20528;-81
2022/04/06 08:35:27;;;;;;;6.57;4.88;;;12.20;96.70;;;;;;5090445;28;20077;-81
2022/04/06 08:37:59;;;;;;;9.25;5.10;;;12.30;96.70;;;;;;5070254;28;20105;-82
2022/04/06 08:40:30;;;;;;;7.30;4.95;;;12.40;96.70;;;;;;5086982;28;20043;-82
2022/04/06 08:43:00;;;;;;;6.72;5.00;;;12.40;96.70;;;;;;5101649;28;20134;-83
2022/04/06 08:45:32;;;;;;;8.13;4.75;;;12.40;96.70;;;;;;5091184;28;20074;-83
2022/04/06 08:48:02;;;;;;;7.60;5.78;;;12.40;96.70;;;;;;5109519;28;20039;-83
2022/04/06 08:50:30;;;;;;;7.43;5.57;;;12.40;96.70;;;;;;5109217;28;20504;-82
2022/04/06 08:53:01;;;;;;;7.82;5.88;;;12.40;96.70;;;;;;5091156;28;20397;-82
2022/04/06 08:55:30;;;;;;;7.00;5.30;;;12.40;96.70;;;;;;5091149;28;20501;-85
2022/04/06 08:57:59;;;;;;;6.82;5.50;;;12.40;96.70;;;;;;5109279;28;20043;-83
2022/04/06 09:00:27;;;;;;;8.98;5.63;;;12.40;96.70;;;;;;5091311;28;20048;-81
2022/04/06 09:02:55;;;;;;;7.97;5.82;;;12.40;96.70;;;;;;5109645;28;20159;-83
2022/04/06 09:05:26;;;;;;;8.73;5.93;;;12.50;96.70;;;;;;5108593;28;20789;-82
2022/04/06 09:07:54;;;;;;;11.02;6.95;;;12.60;96.70;;;;;;5090334;28;20059;-82
2022/04/06 09:10:33;;;;;;;10.23;6.18;;;12.70;96.70;;;;;;5108988;28;20063;-81
2022/04/06 09:13:10;;;;;;;8.13;6.00;;;12.70;96.70;;;;;;5090082;28;20047;-82
2022/04/06 09:15:39;;;;;;;8.93;6.28;;;12.70;96.70;;;;;;5074362;28;20044;-81
2022/04/06 09:18:07;;;;;;;8.80;6.30;;;12.80;96.70;;;;;;5108182;28;20067;-83
2022/04/06 09:20:36;;;;;;;7.78;5.60;;;12.80;96.70;;;;;;5080749;28;20093;-82
2022/04/06 09:23:06;;;;;;;7.82;5.55;;;12.80;96.70;;;;;;5109324;28;20046;-83
2022/04/06 09:25:36;;;;;;;8.68;5.85;;;12.90;96.70;;;;;;5108163;28;20100;-83
2022/04/06 09:28:10;;;;;;;8.20;6.63;;;13.10;96.70;;;;;;5081567;28;20388;-82
2022/04/06 09:30:45;;;;;;;8.57;5.88;;;13.20;96.70;;;;;;5108891;28;20039;-82
2022/04/06 09:33:15;;;;;;;8.38;6.93;;;13.20;96.70;;;;;;5090566;28;20558;-83
2022/04/06 09:35:44;;;;;;;7.63;6.20;;;13.20;96.70;;;;;;5090477;28;20051;-83
2022/04/06 09:38:13;;;;;;;10.63;6.10;;;13.40;96.70;;;;;;5092291;28;20040;-82
2022/04/06 09:40:43;;;;;;;8.57;5.93;;;13.40;96.70;;;;;;5090932;28;20057;-82
2022/04/06 09:43:24;;;;;;;6.75;5.43;;;13.60;96.70;;;;;;5073838;28;20035;-81
2022/04/06 09:48:54;;;;;;;8.55;5.47;;;13.80;96.70;;;;;;5089733;28;20089;-81
2022/04/06 09:51:23;;;;;;;8.63;6.03;;;14.00;96.70;;;;;;5087394;28;20513;-77
2022/04/06 09:53:52;;;;;;;9.43;5.65;;;14.00;96.70;;;;;;5082372;28;20489;-77
2022/04/06 09:56:22;;;;;;;8.07;5.57;;;14.00;96.70;;;;;;5103278;28;20052;-77
2022/04/06 09:58:51;;;;;;;7.20;5.32;;;14.10;96.70;;;;;;5084611;28;20081;-77
2022/04/06 10:01:19;;;;;;;8.48;5.70;;;14.30;96.70;;;;;;5081762;28;20139;-77
2022/04/06 10:03:52;;;;;;;6.43;5.20;;;14.60;96.70;;;;;;5083647;28;20043;-76
2022/04/06 10:06:20;;;;;;;6.60;4.78;;;14.60;96.70;;;;;;5103391;28;20043;-77
2022/04/06 10:08:49;;;;;;;9.25;5.55;;;14.60;96.70;;;;;;5103367;27;20392;-77
2022/04/06 10:11:18;;;;;;;8.65;5.32;;;14.60;96.70;;;;;;5084313;28;20047;-75
2022/04/06 10:13:48;;;;;;;9.27;5.78;;;14.70;96.70;;;;;;5081743;28;20048;-76
2022/04/06 10:16:24;;;;;;;10.70;6.45;;;14.80;96.70;;;;;;5075642;28;20481;-76
2022/04/06 10:18:54;;;;;;;8.35;6.22;;;15.00;96.70;;;;;;5103680;28;20078;-77
2022/04/06 10:21:31;;;;;;;7.97;5.68;;;15.20;96.70;;;;;;5102182;28;20035;-76
2022/04/06 10:24:17;;;;;;;10.68;6.15;;;15.20;96.70;;;;;;5101592;28;20032;-77
2022/04/06 10:26:55;;;;;;;7.28;5.72;;;15.50;96.70;;;;;;5087355;28;20134;-78
2022/04/06 10:29:24;;;;;;;9.00;5.93;;;15.60;96.70;;;;;;5088956;28;20093;-77
2022/04/06 10:31:53;;;;;;;8.52;5.30;;;15.80;96.70;;;;;;5088296;28;20055;-77
2022/04/06 10:34:24;;;;;;;6.97;5.10;;;15.90;96.70;;;;;;5075072;28;20065;-77
2022/04/06 10:37:06;;;;;;;7.97;5.43;;;16.10;96.70;;;;;;5088121;28;20085;-77
2022/04/06 10:39:58;;;;;;;8.82;6.30;;;15.90;96.70;;;;;;5088978;28;20130;-76
2022/04/06 10:42:32;;;;;;;10.50;6.88;;;16.10;96.70;;;;;;5106108;28;20051;-76
2022/04/06 10:45:03;;;;;;;8.32;6.25;;;16.10;96.70;;;;;;5103808;28;20050;-76
2022/04/06 10:47:32;;;;;;;6.70;5.30;;;16.10;96.70;;;;;;5083760;28;20036;-76
2022/04/06 10:50:22;;;;;;;8.95;6.28;;;16.30;96.70;;;;;;5105732;28;20059;-77
2022/04/06 10:53:15;;;;;;;7.07;5.40;;;16.50;96.70;;;;;;5104166;28;20092;-77
2022/04/06 10:55:56;;;;;;;8.88;5.13;;;16.70;96.70;;;;;;5085618;28;20494;-77
2022/04/06 10:58:26;;;;;;;7.30;4.32;;;17.00;96.70;;;;;;5072124;28;20931;-76
2022/04/06 11:01:15;;;;;;;5.78;4.47;;;17.20;96.70;;;;;;5095738;28;20560;-77
2022/04/06 11:04:01;;;;;;;4.85;3.40;;;17.30;96.70;;;;;;5060364;28;20517;-76
2022/04/06 11:06:53;;;;;;;5.35;3.45;;;17.20;96.70;;;;;;5084105;28;20544;-77
2022/04/06 11:12:14;;;;;;;3.78;2.15;;;17.70;95.20;;;;;;5104287;28;20043;-77
2022/04/06 11:14:44;;;;;;;2.55;1.60;;;17.70;92.50;;;;;;5073059;28;20044;-77
2022/04/06 11:17:41;;;;;;;3.63;1.33;;;17.70;88.80;;;;;;5084817;28;20067;-77
2022/04/06 11:20:11;;;;;;;2.85;1.67;;;17.70;90.50;;;;;;5102616;27;20527;-77
2022/04/06 11:22:42;;;;;;;3.72;1.77;;;17.80;91.00;;;;;;5087672;28;20116;-77
2022/04/06 11:25:14;;;;;;;3.80;2.33;;;17.80;91.80;;;;;;5087538;28;20106;-77
2022/04/06 11:27:43;;;;;;;3.47;1.88;;;17.60;90.40;;;;;;5086962;28;20063;-76
2022/04/06 11:30:16;;;;;;;2.53;1.70;;;17.60;88.60;;;;;;5087223;28;20150;-76
2022/04/06 11:32:51;;;;;;;2.40;1.52;;;17.70;90.90;;;;;;5088012;28;20048;-77
2022/04/06 11:35:21;;;;;;;2.28;1.60;;;17.90;90.10;;;;;;5087024;28;20043;-77
2022/04/06 11:37:55;;;;;;;2.88;1.60;;;17.90;90.90;;;;;;5076167;28;20048;-77
2022/04/06 11:40:26;;;;;;;3.35;1.88;;;18.00;92.10;;;;;;5088243;28;20542;-78
2022/04/06 11:42:55;;;;;;;2.95;2.03;;;18.10;92.50;;;;;;5080848;28;20067;-77
2022/04/06 11:45:25;;;;;;;3.20;2.25;;;18.00;93.00;;;;;;5087752;28;20493;-77
2022/04/06 11:47:56;;;;;;;3.58;2.42;;;17.80;93.80;;;;;;5087286;28;20444;-77
2022/04/06 11:50:29;;;;;;;5.00;2.80;;;17.80;94.00;;;;;;5111838;27;20116;-75
2022/04/06 11:53:01;;;;;;;4.93;2.83;;;17.70;93.10;;;;;;5086385;28;20132;-77
2022/04/06 11:55:40;;;;;;;3.90;2.58;;;17.90;92.30;;;;;;5081700;28;20055;-77
2022/04/06 11:58:08;;;;;;;4.75;2.53;;;18.10;91.80;;;;;;5086395;28;20071;-76
2022/04/06 12:00:37;;;;;;;4.57;2.80;;;18.40;92.50;;;;;;5087633;28;20085;-77
2022/04/06 12:03:08;;;;;;;6.05;3.17;;;18.60;93.00;;;;;;5103197;28;20892;-76
2022/04/06 12:05:46;;;;;;;4.35;2.20;;;18.40;92.50;;;;;;5106236;27;20047;-77
2022/04/06 12:08:15;;;;;;;5.13;2.67;;;18.40;93.40;;;;;;5103679;28;20056;-77
2022/04/06 12:10:50;;;;;;;4.32;2.60;;;18.30;94.30;;;;;;5104973;28;20032;-76
2022/04/06 12:13:19;;;;;;;3.25;2.35;;;18.30;95.20;;;;;;5076440;28;20075;-77
2022/04/06 12:15:48;;;;;;;4.13;2.75;;;18.20;94.50;;;;;;5086731;28;20052;-78
2022/04/06 12:18:19;;;;;;;3.65;2.50;;;18.40;95.00;;;;;;5085821;28;20071;-76
2022/04/06 12:20:48;;;;;;;4.75;2.78;;;18.50;94.60;;;;;;5080992;28;20039;-77
2022/04/06 12:23:18;;;;;;;8.45;3.40;;;18.50;93.90;;;;;;5085658;28;20390;-77
2022/04/06 12:25:47;;;;;;;6.43;3.33;;;18.40;94.50;;;;;;5103349;28;20645;-76
2022/04/06 12:28:18;;;;;;;4.38;3.10;;;18.50;95.00;;;;;;5069841;28;20057;-76
2022/04/06 12:30:54;;;;;;;5.40;3.17;;;18.30;93.90;;;;;;5086457;28;20428;-77
2022/04/06 12:33:37;;;;;;;7.30;3.63;;;18.30;94.90;;;;;;5099034;27;20047;-77
2022/04/06 12:36:06;;;;;;;4.60;2.97;;;18.30;94.20;;;;;;5086844;28;20847;-76
2022/04/06 12:38:35;;;;;;;4.13;2.67;;;18.30;93.70;;;;;;5082587;28;20052;-76
2022/04/06 12:41:05;;;;;;;4.18;2.50;;;18.30;94.50;;;;;;5085589;28;20089;-77
2022/04/06 12:43:48;;;;;;;4.20;2.47;;;18.20;93.10;;;;;;5081162;28;20048;-77
2022/04/06 12:46:37;;;;;;;4.05;2.33;;;18.10;93.20;;;;;;5102768;28;20039;-77
2022/04/06 12:49:29;;;;;;;8.25;3.47;;;18.10;95.00;;;;;;5089068;28;20072;-76
2022/04/06 12:52:08;;;;;;;5.25;2.88;;;17.80;95.30;;;;;;5095738;28;20043;-77
2022/04/06 12:54:38;;;;;;;4.68;2.58;;;17.90;95.50;;;;;;5104292;28;20058;-76
2022/04/06 12:57:13;;;;;;;5.22;2.95;;;17.90;94.60;;;;;;5085919;28;20039;-77
2022/04/06 12:59:43;;;;;;;5.15;3.15;;;17.80;94.30;;;;;;5085769;28;20499;-76
2022/04/06 13:02:22;;;;;;;4.95;2.90;;;17.80;94.60;;;;;;5102145;28;20046;-76
2022/04/06 13:04:54;;;;;;;5.38;2.97;;;17.80;95.40;;;;;;5101828;27;20498;-76
2022/04/06 13:07:22;;;;;;;5.45;2.88;;;17.70;95.80;;;;;;5085113;28;20051;-76
2022/04/06 13:10:08;;;;;;;4.45;2.90;;;17.60;96.30;;;;;;5089430;28;20048;-77
2022/04/06 13:12:38;;;;;;;8.32;5.10;;;17.50;96.40;;;;;;5086081;28;20136;-76
2022/04/06 13:15:07;;;;;;;7.47;4.10;;;17.60;95.60;;;;;;5084762;28;20051;-76
2022/04/06 13:17:37;;;;;;;7.90;3.33;;;17.50;95.90;;;;;;5086898;27;20047;-76
2022/04/06 13:20:09;;;;;;;4.28;2.90;;;17.50;96.50;;;;;;5087961;28;20390;-76
2022/04/06 13:22:39;;;;;;;5.65;2.67;;;17.50;96.70;;;;;;5100302;28;20040;-76